LEAS/OVD METAR and TAF weather

Enter ICAO airport designator
Station Type Date Time Source
LEAS METAR 2020/09/30 15:30 UTC NOAA

LEAS 301530Z 31006KT 270V010 9999 FEW025 18/14 Q1014 NOSIG


Station Type Date Time Source
LEAS Decoded METAR 2020/09/30 15:30 UTC NOAA

Asturias / Aviles, Spain (LEAS) 43-33N 006-02W 130M
Sep 30, 2020 - 11:30 AM EDT / 2020.09.30 1530 UTC
Wind: from the NW (310 degrees) at 7 MPH (6 KT) (direction variable):0
Visibility: greater than 7 mile(s):0
Sky conditions: mostly clear
Temperature: 64 F (18 C)
Dew Point: 57 F (14 C)
Relative Humidity: 77%
Pressure (altimeter): 29.94 in. Hg (1014 hPa)
ob: LEAS 301530Z 31006KT 270V010 9999 FEW025 18/14 Q1014 NOSIG
cycle: 15

Station Type Date Time Source
LEAS TAF 2020/09/30 15:27 UTC NOAA

TAF LEAS 301400Z 3015/0115 24008KT 9999 SCT025 TX19/0114Z TN13/0106Z
TEMPO 3015/3018 30011KT
TEMPO 3021/0109 3000 RA BKN010
TEMPO 0109/0115 28015G28KT

Example: see airport list